Terminal Aerodrome Forecast
Issued by NWS

Current Version | Previous Version | Graphics & Text | Print | Product List | Glossary On
Versions: 1 2 3 4 5 6 7 8 9 10 11 12 13 14 15 16 17 18 19 20 21 22 23 24 25 26 27
000
FTUS41 KRLX 140302 AAA
TAFCKB
TAF AMD
KCKB 140302Z 1403/1424 22012G23KT P6SM OVC060
      TEMPO 1406/1408 2SM -SHSN OVC023
     FM140800 24015G27KT P6SM OVC025
      TEMPO 1408/1410 2SM -SHSN OVC007
     FM141000 26016G28KT 4SM -SHSN OVC017
     FM141300 29009KT P6SM BKN014
     FM141500 31006KT P6SM BKN022
     FM142300 30004KT P6SM BKN040=

USA.gov is the U.S. government's official web portal to all federal, state and local government web resources and services.